Time;durP1;ratioP1;P1;durP2;ratioP2;P2;SDS_P1;SDS_P2;PMS_P1;PMS_P2;Temp;Humidity;BMP_temperature;BMP_pressure;BME280_temperature;BME280_humidity;BME280_pressure;Samples;Min_cycle;Max_cycle;Signal;HPM_P1;HPM_P2
2022/09/28 00:01:34;;;;;;;7.35;6.80;;;;;;;18.27;100.00;98292.19;5109561;28;20198;-54
2022/09/28 00:04:03;;;;;;;8.43;7.72;;;;;;;18.24;100.00;98297.66;5108753;28;20191;-55
2022/09/28 00:06:31;;;;;;;7.80;7.20;;;;;;;18.19;100.00;98305.91;5109674;28;20595;-55
2022/09/28 00:09:00;;;;;;;8.90;7.60;;;;;;;18.10;100.00;98307.47;5109495;28;20690;-56
2022/09/28 00:11:28;;;;;;;8.00;7.05;;;;;;;18.08;100.00;98308.53;5109480;28;20310;-55
2022/09/28 00:13:58;;;;;;;8.73;7.88;;;;;;;17.96;100.00;98284.06;5109422;28;20228;-58
2022/09/28 00:16:27;;;;;;;8.05;7.40;;;;;;;18.00;100.00;98303.91;5108737;28;20190;-59
2022/09/28 00:18:55;;;;;;;7.82;7.22;;;;;;;17.87;100.00;98289.22;5109405;28;20198;-59
2022/09/28 00:21:26;;;;;;;7.45;6.85;;;;;;;17.97;100.00;98291.00;5109419;28;20193;-59
2022/09/28 00:26:39;;;;;;;8.55;7.95;;;;;;;17.88;100.00;98275.13;5109424;28;20201;-59
2022/09/28 00:29:07;;;;;;;8.20;7.57;;;;;;;17.68;100.00;98274.06;5109303;28;20199;-59
2022/09/28 00:31:35;;;;;;;8.73;7.50;;;;;;;17.58;100.00;98270.47;5109224;28;20222;-59
2022/09/28 00:34:04;;;;;;;7.80;7.03;;;;;;;17.59;100.00;98280.00;5111024;28;20231;-59
2022/09/28 00:36:33;;;;;;;6.93;6.33;;;;;;;17.63;100.00;98278.81;5112925;28;20194;-59
2022/09/28 00:39:05;;;;;;;6.73;6.33;;;;;;;17.60;100.00;98279.06;5112904;28;20563;-59
2022/09/28 00:41:32;;;;;;;7.83;7.13;;;;;;;17.56;100.00;98274.97;5112797;28;20187;-59
2022/09/28 00:44:41;;;;;;;7.10;6.50;;;;;;;17.55;100.00;98271.53;5112987;28;20678;-59
2022/09/28 00:47:21;;;;;;;13.43;6.97;;;;;;;17.58;100.00;98278.34;5112705;28;20194;-55
2022/09/28 00:49:55;;;;;;;8.47;7.27;;;;;;;17.50;100.00;98265.78;5112690;28;20264;-56
2022/09/28 00:52:27;;;;;;;6.40;5.83;;;;;;;17.56;100.00;98262.72;5112951;28;20605;-55
2022/09/28 00:54:56;;;;;;;7.03;6.40;;;;;;;17.57;100.00;98260.91;5112663;28;20707;-56
2022/09/28 00:57:25;;;;;;;7.07;6.43;;;;;;;17.55;100.00;98273.31;5112762;28;20225;-55
2022/09/28 00:59:52;;;;;;;7.60;6.90;;;;;;;17.50;100.00;98265.78;5112626;28;20194;-59
2022/09/28 01:02:20;;;;;;;10.47;7.23;;;;;;;17.40;100.00;98252.53;5112536;28;20195;-58
2022/09/28 01:04:49;;;;;;;8.40;7.70;;;;;;;17.54;100.00;98277.72;5112550;28;20285;-59
2022/09/28 01:07:17;;;;;;;7.53;6.80;;;;;;;17.54;100.00;98274.25;5112166;28;20260;-59
2022/09/28 01:09:46;;;;;;;7.80;6.93;;;;;;;17.50;100.00;98270.19;5112374;28;20202;-59
2022/09/28 01:12:13;;;;;;;7.70;7.00;;;;;;;17.40;100.00;98270.91;5112231;28;20218;-59
2022/09/28 01:14:41;;;;;;;8.23;7.63;;;;;;;17.27;100.00;98266.69;5111989;28;20198;-58
2022/09/28 01:17:14;;;;;;;8.00;7.27;;;;;;;17.16;100.00;98272.75;5111864;28;20220;-55
2022/09/28 01:20:13;;;;;;;8.03;7.43;;;;;;;17.11;100.00;98261.81;5111789;28;20195;-55
2022/09/28 01:23:11;;;;;;;8.80;7.43;;;;;;;17.16;100.00;98250.94;5108226;28;20286;-55
2022/09/28 01:25:50;;;;;;;8.17;7.37;;;;;;;17.22;100.00;98250.50;5112157;28;20282;-55
2022/09/28 01:28:21;;;;;;;7.60;7.00;;;;;;;17.21;100.00;98254.91;5112104;28;20201;-59
2022/09/28 01:31:02;;;;;;;8.23;7.43;;;;;;;17.20;100.00;98252.41;5112063;28;20588;-58
2022/09/28 01:33:35;;;;;;;8.27;7.57;;;;;;;17.16;100.00;98256.19;5111995;28;20230;-59
2022/09/28 01:36:09;;;;;;;8.37;7.57;;;;;;;17.05;100.00;98259.63;5111870;28;20635;-58
2022/09/28 01:38:42;;;;;;;8.03;7.33;;;;;;;16.99;100.00;98247.00;5111750;28;20197;-60
2022/09/28 01:41:10;;;;;;;7.90;7.30;;;;;;;16.94;100.00;98255.19;5111985;28;20198;-55
2022/09/28 01:43:42;;;;;;;7.83;7.23;;;;;;;16.95;100.00;98249.00;5111598;27;20199;-55
2022/09/28 01:46:13;;;;;;;8.83;7.87;;;;;;;16.96;100.00;98248.03;5110749;28;20199;-54
2022/09/28 01:48:45;;;;;;;8.00;7.37;;;;;;;16.96;100.00;98255.91;5111436;28;20285;-54
2022/09/28 01:51:18;;;;;;;8.23;7.53;;;;;;;16.96;100.00;98245.44;5111544;28;20195;-53
2022/09/28 01:53:52;;;;;;;7.30;6.77;;;;;;;16.91;100.00;98246.75;5111268;28;20198;-55
2022/09/28 01:56:25;;;;;;;8.23;7.43;;;;;;;16.87;100.00;98242.66;5111449;28;20245;-59
2022/09/28 01:58:57;;;;;;;7.80;7.03;;;;;;;16.84;100.00;98245.50;5111574;28;20226;-55
2022/09/28 02:01:41;;;;;;;8.43;7.53;;;;;;;16.79;100.00;98242.41;5111672;28;20226;-59
2022/09/28 02:04:13;;;;;;;8.80;8.00;;;;;;;16.78;100.00;98243.34;5111931;28;20210;-59
2022/09/28 02:06:46;;;;;;;8.60;8.00;;;;;;;16.80;100.00;98241.47;5111382;28;20198;-60
2022/09/28 02:09:19;;;;;;;8.60;6.60;;;;;;;16.82;100.00;98253.47;5111542;28;20582;-59
2022/09/28 02:11:53;;;;;;;8.77;7.57;;;;;;;16.86;100.00;98254.09;5111009;28;20229;-59
2022/09/28 02:14:23;;;;;;;8.00;7.30;;;;;;;16.93;100.00;98258.75;5111080;28;20706;-59
2022/09/28 02:16:54;;;;;;;7.53;6.93;;;;;;;17.00;100.00;98262.59;5111075;28;20647;-60
2022/09/28 02:19:24;;;;;;;7.53;6.93;;;;;;;17.00;100.00;98264.38;5110876;28;20206;-59
2022/09/28 02:21:57;;;;;;;7.13;6.60;;;;;;;17.02;100.00;98260.72;5110445;28;20203;-59
2022/09/28 02:24:28;;;;;;;9.77;8.73;;;;;;;16.94;100.00;98272.69;5110898;28;20199;-59
2022/09/28 02:27:00;;;;;;;15.27;13.77;;;;;;;16.99;100.00;98286.31;5110931;28;20206;-60
2022/09/28 02:29:28;;;;;;;21.20;14.00;;;;;;;16.95;100.00;98290.09;5110887;28;20228;-55
2022/09/28 02:31:55;;;;;;;13.37;12.13;;;;;;;16.86;100.00;98282.91;5110552;28;20608;-56
2022/09/28 02:34:22;;;;;;;13.67;11.70;;;;;;;16.75;100.00;98282.88;5110293;28;20240;-56
2022/09/28 02:36:49;;;;;;;15.07;11.83;;;;;;;16.53;100.00;98252.97;5110396;28;20285;-55
2022/09/28 02:39:17;;;;;;;13.27;11.30;;;;;;;16.59;100.00;98283.94;5110833;28;20794;-55
2022/09/28 02:41:59;;;;;;;13.10;10.93;;;;;;;16.60;100.00;98284.78;5110301;28;20230;-59
2022/09/28 02:45:00;;;;;;;12.27;11.07;;;;;;;16.64;100.00;98286.28;5110655;28;20198;-59
2022/09/28 02:47:42;;;;;;;15.13;10.53;;;;;;;16.63;100.00;98276.75;5111075;28;20202;-59
2022/09/28 02:50:20;;;;;;;12.63;11.33;;;;;;;16.52;100.00;98267.03;5110486;28;20692;-56
2022/09/28 02:53:05;;;;;;;12.70;11.43;;;;;;;16.48;100.00;98260.31;5109988;28;20718;-56
2022/09/28 02:55:52;;;;;;;14.37;11.87;;;;;;;16.51;100.00;98265.34;5110385;28;20446;-55
2022/09/28 02:58:34;;;;;;;13.90;12.50;;;;;;;16.43;100.00;98272.94;5110373;28;20736;-60
2022/09/28 03:01:12;;;;;;;17.90;11.57;;;;;;;16.32;100.00;98272.88;5110303;28;20605;-60
2022/09/28 03:03:48;;;;;;;16.23;12.20;;;;;;;16.20;100.00;98271.13;5110264;28;20200;-56
2022/09/28 03:06:22;;;;;;;14.00;12.43;;;;;;;16.12;100.00;98266.44;5110227;28;20621;-56
2022/09/28 03:08:54;;;;;;;13.37;11.87;;;;;;;16.12;100.00;98255.13;5110311;28;20195;-58
2022/09/28 03:11:28;;;;;;;13.67;12.27;;;;;;;16.00;100.00;98242.91;5110097;28;20620;-55
2022/09/28 03:13:56;;;;;;;16.57;12.50;;;;;;;16.10;100.00;98268.34;5110118;28;20698;-55
2022/09/28 03:16:26;;;;;;;14.07;12.60;;;;;;;16.24;100.00;98283.06;5110008;28;20216;-55
2022/09/28 03:18:53;;;;;;;23.07;11.83;;;;;;;16.15;100.00;98281.06;5109978;28;20731;-55
2022/09/28 03:21:20;;;;;;;16.87;11.27;;;;;;;16.17;100.00;98282.66;5109915;28;20309;-55
2022/09/28 03:23:47;;;;;;;13.20;11.90;;;;;;;16.16;100.00;98287.97;5109760;28;20187;-56
2022/09/28 03:26:15;;;;;;;16.20;10.87;;;;;;;16.13;100.00;98286.44;5109765;28;20694;-55
2022/09/28 03:28:42;;;;;;;14.30;11.47;;;;;;;16.01;100.00;98289.09;5109820;28;20197;-55
2022/09/28 03:31:09;;;;;;;12.97;11.30;;;;;;;15.92;100.00;98288.75;5110038;28;20701;-55
2022/09/28 03:33:37;;;;;;;14.83;11.57;;;;;;;15.95;100.00;98291.19;5109573;28;20219;-55
2022/09/28 03:36:07;;;;;;;11.97;10.73;;;;;;;16.00;100.00;98285.63;5109718;28;20622;-56
2022/09/28 03:38:34;;;;;;;14.10;11.00;;;;;;;16.06;100.00;98287.81;5109802;28;20198;-56
2022/09/28 03:41:01;;;;;;;13.60;11.13;;;;;;;16.14;100.00;98279.44;5110079;28;20573;-56
2022/09/28 03:43:30;;;;;;;14.07;9.73;;;;;;;16.04;100.00;98286.22;5109737;28;20195;-55
2022/09/28 03:46:00;;;;;;;11.80;10.33;;;;;;;16.00;100.00;98290.03;5109598;28;20198;-55
2022/09/28 03:48:28;;;;;;;14.83;10.17;;;;;;;16.07;100.00;98286.03;5109610;28;20195;-55
2022/09/28 03:50:58;;;;;;;12.70;10.33;;;;;;;16.08;100.00;98293.78;5109316;28;20195;-56
2022/09/28 03:53:25;;;;;;;11.63;9.70;;;;;;;16.06;100.00;98305.28;5109471;28;20259;-55
2022/09/28 03:55:53;;;;;;;14.67;9.73;;;;;;;16.09;100.00;98297.22;5109718;28;20701;-56
2022/09/28 03:58:20;;;;;;;10.47;9.47;;;;;;;16.14;100.00;98295.94;5109650;28;20785;-56
2022/09/28 04:00:48;;;;;;;12.87;9.17;;;;;;;16.13;100.00;98291.69;5109217;28;20187;-56
2022/09/28 04:03:15;;;;;;;18.50;7.73;;;;;;;16.11;100.00;98292.72;5109558;28;20673;-56
2022/09/28 04:05:49;;;;;;;9.13;8.10;;;;;;;16.06;100.00;98298.28;5109114;28;20205;-56
2022/09/28 04:08:17;;;;;;;8.13;7.53;;;;;;;16.03;100.00;98300.28;5110260;28;20726;-54
2022/09/28 04:10:44;;;;;;;8.70;7.80;;;;;;;15.97;100.00;98291.06;5113168;28;20409;-56
2022/09/28 04:13:11;;;;;;;8.77;7.80;;;;;;;15.91;100.00;98287.09;5113131;28;20225;-58
2022/09/28 04:15:38;;;;;;;7.73;7.20;;;;;;;15.81;100.00;98277.38;5113438;28;20225;-56
2022/09/28 04:18:09;;;;;;;9.90;7.13;;;;;;;15.94;100.00;98307.81;5113704;28;20198;-60
2022/09/28 04:20:36;;;;;;;13.47;7.27;;;;;;;15.90;100.00;98310.78;5113478;28;20194;-60
2022/09/28 04:23:03;;;;;;;7.63;6.93;;;;;;;15.90;100.00;98316.00;5113461;28;20251;-58
2022/09/28 04:25:31;;;;;;;12.83;8.60;;;;;;;15.79;100.00;98314.13;5113125;28;20199;-59
2022/09/28 04:30:42;;;;;;;13.60;9.93;;;;;;;15.70;100.00;98314.75;5112786;28;20731;-58
2022/09/28 04:33:09;;;;;;;13.27;10.07;;;;;;;15.79;100.00;98316.75;5112100;28;20207;-59
2022/09/28 04:35:36;;;;;;;13.00;9.03;;;;;;;15.86;100.00;98314.53;5111455;28;20222;-59
2022/09/28 04:38:03;;;;;;;12.87;8.80;;;;;;;15.90;100.00;98314.22;5108476;28;20267;-59
2022/09/28 04:40:32;;;;;;;10.93;8.93;;;;;;;15.95;100.00;98312.13;5109040;28;20303;-59
2022/09/28 04:42:58;;;;;;;9.60;7.87;;;;;;;16.04;100.00;98320.25;5112050;28;20230;-58
2022/09/28 04:45:26;;;;;;;19.70;9.37;;;;;;;16.02;100.00;98330.84;5111257;28;20222;-59
2022/09/28 04:47:53;;;;;;;15.87;8.47;;;;;;;15.85;100.00;98290.16;5112244;27;20229;-59
2022/09/28 04:50:20;;;;;;;9.67;8.13;;;;;;;16.10;100.00;98327.69;5112023;28;20658;-59
2022/09/28 04:52:47;;;;;;;21.83;8.63;;;;;;;16.03;100.00;98348.22;5112121;27;20234;-60
2022/09/28 04:55:14;;;;;;;8.90;8.10;;;;;;;15.96;100.00;98355.66;5112165;28;20313;-59
2022/09/28 04:57:43;;;;;;;12.30;7.90;;;;;;;15.89;100.00;98356.19;5112008;27;20219;-55
2022/09/28 05:00:11;;;;;;;8.60;7.90;;;;;;;15.75;100.00;98341.44;5112000;28;20248;-54
2022/09/28 05:02:38;;;;;;;11.23;7.70;;;;;;;15.77;100.00;98362.28;5111497;27;20297;-55
2022/09/28 05:05:06;;;;;;;8.67;7.67;;;;;;;15.75;100.00;98359.75;5109263;28;20594;-55
2022/09/28 05:07:33;;;;;;;11.07;8.00;;;;;;;15.74;100.00;98365.94;5110182;28;20233;-55
2022/09/28 05:10:00;;;;;;;9.80;6.87;;;;;;;15.80;100.00;98365.50;5107175;28;20232;-59
2022/09/28 05:12:27;;;;;;;8.17;6.87;;;;;;;15.98;100.00;98369.47;5109887;27;20625;-58
2022/09/28 05:14:55;;;;;;;7.40;6.60;;;;;;;16.58;100.00;98367.91;5106339;28;20226;-56
2022/09/28 05:17:23;;;;;;;6.13;5.67;;;;;;;17.86;100.00;98369.75;5106100;27;20314;-55
2022/09/28 05:19:50;;;;;;;9.70;5.83;;;;;;;19.27;100.00;98376.03;5103331;28;20230;-55
2022/09/28 05:22:17;;;;;;;11.18;7.00;;;;;;;20.57;100.00;98371.91;5109177;28;20254;-55
2022/09/28 05:24:45;;;;;;;6.32;5.72;;;;;;;22.17;100.00;98365.22;5109624;28;20217;-56
2022/09/28 05:27:12;;;;;;;5.35;4.95;;;;;;;23.40;95.72;98377.03;5109905;28;20304;-55
2022/09/28 05:29:39;;;;;;;19.10;4.80;;;;;;;24.54;88.21;98388.41;5109864;27;20602;-56
2022/09/28 05:32:07;;;;;;;6.82;5.25;;;;;;;25.10;85.21;98402.88;5110505;28;20233;-56
2022/09/28 05:34:34;;;;;;;6.60;5.22;;;;;;;26.21;80.65;98407.53;5109808;28;20234;-56
2022/09/28 05:37:01;;;;;;;12.90;5.50;;;;;;;26.86;73.89;98415.31;5110360;28;20313;-58
2022/09/28 05:39:28;;;;;;;5.80;5.25;;;;;;;27.81;69.01;98413.19;5110001;27;20221;-55
2022/09/28 05:41:56;;;;;;;10.25;5.25;;;;;;;28.69;64.65;98402.59;5110205;28;20234;-58
2022/09/28 05:44:24;;;;;;;8.20;5.32;;;;;;;29.27;60.98;98403.50;5110208;28;20215;-70
2022/09/28 05:46:53;;;;;;;7.97;5.55;;;;;;;29.85;59.41;98428.34;5110071;28;20601;-59
2022/09/28 05:49:21;;;;;;;5.07;4.63;;;;;;;30.77;56.90;98420.97;5105049;27;20215;-59
2022/09/28 05:51:48;;;;;;;10.85;5.30;;;;;;;31.65;52.83;98425.38;5109576;28;20218;-60
2022/09/28 05:54:15;;;;;;;6.72;5.20;;;;;;;32.50;50.04;98431.75;5109839;28;20728;-70
2022/09/28 05:56:42;;;;;;;11.10;5.32;;;;;;;32.81;47.45;98421.13;5110413;28;20607;-59
2022/09/28 05:59:09;;;;;;;6.60;5.00;;;;;;;33.59;45.99;98431.69;5110580;27;20232;-60
2022/09/28 06:01:36;;;;;;;7.22;5.55;;;;;;;34.62;43.34;98436.63;5104036;28;20229;-58
2022/09/28 06:04:03;;;;;;;5.93;5.13;;;;;;;33.86;44.74;98438.53;5110169;27;20735;-58
2022/09/28 06:06:31;;;;;;;9.38;5.05;;;;;;;34.23;43.32;98438.66;5108108;28;20214;-58
2022/09/28 06:08:58;;;;;;;5.72;4.78;;;;;;;33.79;43.61;98437.78;5110078;28;20222;-70
2022/09/28 06:11:25;;;;;;;10.02;4.60;;;;;;;34.24;42.37;98408.78;5110303;28;20233;-71
2022/09/28 06:13:54;;;;;;;7.80;4.78;;;;;;;33.87;42.96;98437.50;5106922;28;20310;-71
2022/09/28 06:16:21;;;;;;;5.47;5.00;;;;;;;33.64;43.26;98417.56;5110357;28;20222;-69
2022/09/28 06:18:48;;;;;;;4.95;4.45;;;;;;;33.73;42.81;98430.56;5110000;27;20582;-59
2022/09/28 06:21:15;;;;;;;5.95;4.20;;;;;;;33.49;43.22;98428.66;5110046;28;20218;-57
2022/09/28 06:23:43;;;;;;;7.63;4.63;;;;;;;34.29;42.24;98431.59;5110109;27;20224;-58
2022/09/28 06:26:10;;;;;;;4.07;3.58;;;;;;;34.79;40.58;98437.69;5110765;28;20218;-56
2022/09/28 06:28:37;;;;;;;9.80;3.88;;;;;;;35.95;38.57;98438.16;5109310;27;20260;-65
2022/09/28 06:31:04;;;;;;;3.63;3.42;;;;;;;36.32;37.52;98432.56;5109479;28;20228;-57
2022/09/28 06:33:31;;;;;;;14.88;3.40;;;;;;;36.71;36.46;98434.53;5109058;27;20237;-57
2022/09/28 06:35:59;;;;;;;3.17;2.72;;;;;;;36.83;36.37;98430.97;5106269;28;20269;-58
2022/09/28 06:38:26;;;;;;;8.10;3.10;;;;;;;36.71;36.02;98439.94;5089485;28;20226;-57
2022/09/28 06:40:56;;;;;;;4.78;3.08;;;;;;;37.08;35.51;98451.25;5094857;28;20224;-57
2022/09/28 06:43:23;;;;;;;5.10;3.33;;;;;;;37.69;34.41;98457.88;5109431;28;20224;-56
2022/09/28 06:45:52;;;;;;;4.95;3.50;;;;;;;37.61;33.74;98446.56;5115604;27;20406;-57
2022/09/28 06:48:19;;;;;;;5.25;3.30;;;;;;;37.21;34.95;98458.31;5129141;27;20201;-56
2022/09/28 06:50:46;;;;;;;5.63;3.72;;;;;;;38.12;33.60;98468.09;5129657;27;20196;-62
2022/09/28 06:53:14;;;;;;;4.00;3.63;;;;;;;38.84;32.15;98448.22;5129304;27;20217;-62
2022/09/28 06:55:43;;;;;;;8.63;3.47;;;;;;;40.32;29.80;98467.69;5130356;27;20200;-57
2022/09/28 06:58:13;;;;;;;3.03;2.72;;;;;;;40.36;29.23;98465.28;5131105;27;20208;-57
2022/09/28 07:00:40;;;;;;;4.90;2.80;;;;;;;40.52;29.08;98461.59;5130965;27;20201;-57
2022/09/28 07:03:11;;;;;;;2.95;2.78;;;;;;;40.69;28.86;98454.03;5130739;27;20676;-56
2022/09/28 07:05:42;;;;;;;8.63;3.35;;;;;;;39.45;30.19;98444.38;5130827;27;20297;-57
2022/09/28 07:08:09;;;;;;;2.55;2.40;;;;;;;40.46;29.09;98441.69;5130678;27;20280;-56
2022/09/28 07:10:41;;;;;;;5.45;2.78;;;;;;;41.35;28.60;98454.31;5130492;27;20315;-57
2022/09/28 07:13:08;;;;;;;3.00;2.70;;;;;;;41.73;27.50;98446.78;5130458;27;20195;-57
2022/09/28 07:15:37;;;;;;;3.72;3.35;;;;;;;42.19;25.86;98448.44;5130532;27;20253;-56
2022/09/28 07:18:05;;;;;;;7.72;3.45;;;;;;;40.59;28.22;98448.56;5130442;27;20699;-57
2022/09/28 07:20:34;;;;;;;6.47;3.22;;;;;;;40.60;28.16;98450.19;5130589;27;20197;-57
2022/09/28 07:23:03;;;;;;;4.20;2.97;;;;;;;39.08;30.17;98449.66;5130583;27;20194;-57
2022/09/28 07:25:31;;;;;;;5.80;3.72;;;;;;;37.66;31.67;98439.41;5130343;27;20197;-55
2022/09/28 07:27:59;;;;;;;12.52;4.00;;;;;;;36.48;34.09;98425.59;5130117;27;20198;-56
2022/09/28 07:30:28;;;;;;;3.53;3.22;;;;;;;35.31;36.12;98420.03;5130255;27;20208;-56
2022/09/28 07:32:56;;;;;;;5.78;3.58;;;;;;;33.95;39.12;98422.97;5130303;27;20193;-55
2022/09/28 07:35:23;;;;;;;4.85;3.20;;;;;;;31.65;44.00;98421.88;5130027;27;20239;-56
2022/09/28 07:37:59;;;;;;;4.13;3.72;;;;;;;30.21;47.89;98421.03;5130204;27;20594;-60
2022/09/28 07:43:11;;;;;;;4.30;3.90;;;;;;;27.92;55.00;98403.94;5130937;27;20193;-60
2022/09/28 07:45:38;;;;;;;5.32;4.15;;;;;;;27.22;58.10;98399.63;5134779;27;20204;-55
2022/09/28 07:48:07;;;;;;;4.40;4.10;;;;;;;26.78;60.02;98399.34;5125435;27;20216;-55
2022/09/28 07:50:34;;;;;;;4.53;4.10;;;;;;;26.43;60.95;98403.31;5113825;28;20651;-60
2022/09/28 07:53:00;;;;;;;7.55;4.30;;;;;;;25.88;63.45;98401.44;5113901;28;20205;-60
2022/09/28 07:55:27;;;;;;;7.10;4.47;;;;;;;25.74;64.28;98402.09;5113975;28;20225;-60
2022/09/28 07:57:55;;;;;;;4.75;4.35;;;;;;;25.49;65.36;98395.94;5113841;28;20204;-56
2022/09/28 08:00:22;;;;;;;7.57;4.30;;;;;;;24.79;68.03;98398.13;5113454;28;20240;-55
2022/09/28 08:02:49;;;;;;;6.47;4.63;;;;;;;24.83;68.42;98401.28;5113782;28;20255;-56
2022/09/28 08:05:18;;;;;;;7.47;4.47;;;;;;;24.87;68.22;98399.94;5113436;28;20203;-55
2022/09/28 08:07:45;;;;;;;4.22;3.80;;;;;;;24.66;68.07;98375.66;5113831;28;20702;-56
2022/09/28 08:10:11;;;;;;;4.65;4.20;;;;;;;24.82;68.29;98397.81;5113165;28;20187;-55
2022/09/28 08:12:40;;;;;;;5.15;4.47;;;;;;;24.92;67.96;98402.97;5113344;28;20752;-55
2022/09/28 08:15:09;;;;;;;6.80;4.20;;;;;;;24.96;67.81;98406.97;5112963;28;20218;-55
2022/09/28 08:17:36;;;;;;;6.30;3.75;;;;;;;24.95;67.48;98406.13;5113492;27;20751;-59
2022/09/28 08:22:48;;;;;;;6.60;4.43;;;;;;;24.39;68.86;98387.31;5113444;28;20265;-60
2022/09/28 08:25:15;;;;;;;5.47;4.43;;;;;;;24.26;69.84;98401.03;5113550;28;20194;-60
2022/09/28 08:27:42;;;;;;;4.60;3.97;;;;;;;24.30;69.51;98405.03;5113302;28;20221;-60
2022/09/28 08:30:10;;;;;;;5.75;4.32;;;;;;;24.30;69.32;98397.06;5113005;28;20229;-60
2022/09/28 08:32:37;;;;;;;9.65;4.68;;;;;;;24.36;70.62;98403.56;5113110;28;20208;-59
2022/09/28 08:35:04;;;;;;;5.18;4.32;;;;;;;24.34;69.99;98379.03;5112847;28;20222;-59
2022/09/28 08:37:31;;;;;;;5.22;4.15;;;;;;;24.47;69.89;98403.31;5113051;28;20281;-60
2022/09/28 08:40:00;;;;;;;7.43;3.85;;;;;;;24.49;69.44;98401.31;5113065;28;20589;-60
2022/09/28 08:42:34;;;;;;;9.32;4.10;;;;;;;24.58;68.65;98395.06;5113010;28;20195;-60
2022/09/28 08:45:08;;;;;;;4.47;4.07;;;;;;;24.69;68.28;98393.94;5112687;28;20254;-59
2022/09/28 08:50:29;;;;;;;6.45;5.07;;;;;;;24.65;66.92;98398.72;5112651;28;20592;-59
2022/09/28 08:53:00;;;;;;;9.48;5.47;;;;;;;24.67;66.36;98395.91;5112592;28;20195;-59
2022/09/28 08:55:31;;;;;;;11.40;7.47;;;;;;;24.75;65.82;98395.94;5112155;28;20222;-60
2022/09/28 08:58:02;;;;;;;4.78;4.20;;;;;;;24.71;63.90;98390.13;5112942;28;20586;-59
2022/09/28 09:00:33;;;;;;;7.80;4.13;;;;;;;24.74;63.52;98387.13;5112495;28;20198;-60
2022/09/28 09:03:05;;;;;;;6.93;3.75;;;;;;;24.87;63.14;98389.34;5112574;28;20202;-60
2022/09/28 09:05:51;;;;;;;6.40;3.70;;;;;;;24.99;61.06;98398.69;5112564;28;20738;-56
2022/09/28 09:08:31;;;;;;;6.80;3.28;;;;;;;25.18;59.73;98397.56;5112420;28;20198;-56
2022/09/28 09:11:08;;;;;;;3.28;3.08;;;;;;;25.24;59.02;98387.13;5111976;28;20201;-56
2022/09/28 09:14:10;;;;;;;3.05;2.70;;;;;;;25.10;61.00;98397.56;5112147;28;20596;-55
2022/09/28 09:16:54;;;;;;;15.30;12.10;;;;;;;25.28;60.53;98388.44;5112072;28;20198;-55
2022/09/28 09:19:34;;;;;;;3.67;3.38;;;;;;;25.40;57.42;98394.25;5112131;28;20205;-57
2022/09/28 09:22:10;;;;;;;5.93;3.35;;;;;;;25.45;56.81;98394.63;5111838;28;20198;-55
2022/09/28 09:24:47;;;;;;;6.32;5.72;;;;;;;25.59;57.25;98399.28;5111893;28;20201;-61
2022/09/28 09:27:29;;;;;;;4.63;3.03;;;;;;;25.55;56.86;98389.13;5112125;28;20206;-59
2022/09/28 09:30:05;;;;;;;4.75;3.30;;;;;;;25.68;57.17;98390.31;5112018;28;20198;-59
2022/09/28 09:32:58;;;;;;;3.60;2.70;;;;;;;25.79;56.35;98391.81;5111786;28;20707;-56
2022/09/28 09:35:46;;;;;;;3.42;2.42;;;;;;;25.87;55.94;98382.97;5106101;28;20241;-56
2022/09/28 09:38:31;;;;;;;5.22;3.33;;;;;;;25.86;56.78;98387.47;5111878;28;20730;-60
2022/09/28 09:41:14;;;;;;;5.03;3.10;;;;;;;25.80;57.00;98382.84;5111819;28;20577;-59
2022/09/28 09:44:10;;;;;;;4.00;3.17;;;;;;;25.83;56.07;98382.50;5111935;28;20191;-61
2022/09/28 09:46:43;;;;;;;5.10;3.10;;;;;;;25.74;56.30;98380.84;5111973;28;20638;-59
2022/09/28 09:49:15;;;;;;;4.03;3.30;;;;;;;25.62;57.05;98379.53;5111554;28;20353;-60
2022/09/28 09:51:48;;;;;;;5.85;3.85;;;;;;;25.67;57.21;98390.50;5111393;28;20195;-60
2022/09/28 09:54:21;;;;;;;5.22;3.10;;;;;;;25.65;56.00;98389.81;5111310;28;20233;-56
2022/09/28 09:56:55;;;;;;;3.47;2.92;;;;;;;25.66;56.77;98383.50;5111145;28;20296;-55
2022/09/28 09:59:32;;;;;;;5.63;2.58;;;;;;;25.73;56.25;98376.53;5111300;28;20206;-55
2022/09/28 10:02:02;;;;;;;3.80;2.97;;;;;;;25.80;54.43;98374.03;5110954;28;20190;-59
2022/09/28 10:04:35;;;;;;;3.55;3.17;;;;;;;25.95;53.95;98380.34;5111208;28;20266;-55
2022/09/28 10:07:05;;;;;;;3.30;2.65;;;;;;;26.03;53.29;98373.16;5109997;28;20191;-56
2022/09/28 10:09:38;;;;;;;4.13;2.90;;;;;;;26.15;53.53;98375.47;5111072;28;20670;-55
2022/09/28 10:12:09;;;;;;;7.35;3.05;;;;;;;26.22;53.23;98369.28;5110864;28;20221;-56
2022/09/28 10:14:38;;;;;;;4.85;2.83;;;;;;;26.17;52.52;98362.84;5110803;28;20222;-56
2022/09/28 10:17:05;;;;;;;3.47;2.70;;;;;;;26.32;51.87;98366.44;5110933;28;20209;-56
2022/09/28 10:19:34;;;;;;;4.30;2.72;;;;;;;26.47;51.97;98370.06;5110796;28;20285;-55
2022/09/28 10:22:05;;;;;;;6.45;4.18;;;;;;;26.51;51.82;98358.06;5110474;28;20209;-55
2022/09/28 10:24:35;;;;;;;2.80;2.70;;;;;;;26.52;52.99;98346.44;5111041;28;20513;-60
2022/09/28 10:27:07;;;;;;;6.28;4.45;;;;;;;26.69;52.28;98358.66;5110494;28;20733;-55
2022/09/28 10:29:44;;;;;;;3.85;2.80;;;;;;;26.60;52.39;98364.19;5110943;28;20199;-60
2022/09/28 10:32:23;;;;;;;5.32;3.58;;;;;;;26.38;53.99;98349.81;5110861;28;20205;-60
2022/09/28 10:34:51;;;;;;;3.30;3.10;;;;;;;26.38;53.78;98349.81;5110645;28;20659;-60
2022/09/28 10:37:19;;;;;;;7.38;3.38;;;;;;;26.28;54.15;98336.72;5110736;28;20251;-60
2022/09/28 10:39:50;;;;;;;8.65;6.15;;;;;;;26.46;54.43;98347.13;5110812;28;20198;-60
2022/09/28 10:42:23;;;;;;;5.47;4.07;;;;;;;26.58;54.04;98339.56;5110863;28;20213;-59
2022/09/28 10:44:56;;;;;;;5.63;3.53;;;;;;;26.64;53.93;98338.88;5110672;28;20198;-60
2022/09/28 10:47:25;;;;;;;5.30;3.40;;;;;;;26.71;53.25;98335.34;5110631;28;20285;-60
2022/09/28 10:49:54;;;;;;;5.45;3.60;;;;;;;26.52;53.58;98303.84;5110473;28;20198;-59
2022/09/28 10:52:36;;;;;;;4.07;3.00;;;;;;;26.77;52.57;98339.13;5110353;28;20201;-60
2022/09/28 10:55:24;;;;;;;6.60;3.05;;;;;;;26.50;53.25;98316.50;5110507;28;20604;-60
2022/09/28 10:57:51;;;;;;;3.38;3.00;;;;;;;26.48;53.39;98331.81;5109980;28;20203;-55
2022/09/28 11:00:34;;;;;;;3.17;2.88;;;;;;;26.32;53.64;98322.06;5110136;28;20710;-56
2022/09/28 11:03:01;;;;;;;4.18;3.47;;;;;;;26.28;54.37;98318.09;5110420;28;20194;-59
2022/09/28 11:05:29;;;;;;;7.00;3.42;;;;;;;26.32;54.33;98308.75;5110474;28;20201;-60
2022/09/28 11:07:58;;;;;;;4.30;3.40;;;;;;;26.31;54.46;98303.59;5110200;28;20194;-59
2022/09/28 11:10:28;;;;;;;3.13;2.88;;;;;;;26.30;54.73;98304.59;5110125;28;20202;-55
2022/09/28 11:12:57;;;;;;;7.15;3.70;;;;;;;26.17;55.43;98304.31;5109919;28;20212;-54
2022/09/28 11:15:27;;;;;;;5.95;3.10;;;;;;;26.26;55.37;98296.13;5110213;28;20226;-60
2022/09/28 11:17:55;;;;;;;4.53;3.22;;;;;;;26.22;55.27;98291.31;5109869;28;20277;-60
2022/09/28 11:20:33;;;;;;;6.35;3.00;;;;;;;26.33;54.43;98301.59;5110125;28;20286;-60
2022/09/28 11:23:16;;;;;;;3.72;2.92;;;;;;;26.28;54.51;98299.47;5110136;28;20221;-55
2022/09/28 11:25:44;;;;;;;2.97;2.78;;;;;;;26.27;54.61;98291.63;5109837;28;20190;-55
2022/09/28 11:28:22;;;;;;;3.30;3.10;;;;;;;26.13;54.65;98285.22;5109888;28;20663;-56
2022/09/28 11:30:52;;;;;;;4.82;2.78;;;;;;;26.14;53.79;98278.06;5109967;28;20583;-60
2022/09/28 11:33:30;;;;;;;4.60;3.10;;;;;;;26.08;54.49;98274.25;5110246;28;20195;-54
2022/09/28 11:36:05;;;;;;;6.10;3.00;;;;;;;26.15;54.81;98277.06;5109321;28;20240;-55
2022/09/28 11:38:38;;;;;;;6.30;3.03;;;;;;;26.09;54.45;98265.25;5110246;28;20701;-55
2022/09/28 11:41:29;;;;;;;3.15;2.85;;;;;;;26.15;54.90;98261.09;5109771;28;20201;-55
2022/09/28 11:44:18;;;;;;;4.93;2.88;;;;;;;26.26;54.74;98266.03;5110294;28;20199;-60
2022/09/28 11:46:59;;;;;;;3.85;3.30;;;;;;;26.23;55.05;98259.22;5110052;28;20194;-60
2022/09/28 11:49:33;;;;;;;3.67;3.03;;;;;;;26.22;55.47;98259.41;5109975;28;20200;-60
2022/09/28 11:52:05;;;;;;;8.25;4.40;;;;;;;26.15;54.65;98259.28;5109954;28;20199;-60
2022/09/28 11:54:40;;;;;;;4.53;3.35;;;;;;;26.17;54.12;98261.75;5109866;28;20202;-59
2022/09/28 11:57:15;;;;;;;4.80;4.22;;;;;;;26.19;52.94;98259.72;5109763;28;20575;-56
2022/09/28 11:59:52;;;;;;;7.55;3.05;;;;;;;26.21;51.30;98258.56;5109881;28;20194;-60